Terminal Aerodrome Forecast
Issued by NWS

Home | Current Version | Previous Version | Graphics & Text | Print | Product List | Glossary On
Versions: 1 2 3 4 5 6 7 8 9 10 11 12 13 14 15
000
FTUS43 KMPX 041720
TAFRWF
TAF
KRWF 041720Z 0418/0518 24005KT P6SM BKN250
     FM042000 27006KT P6SM SCT250
     FM050000 VRB03KT P6SM SCT250
     FM051000 15004KT P6SM SCT250
     FM051600 16007KT P6SM SCT060 SCT250=

USA.gov is the U.S. government's official web portal to all federal, state and local government web resources and services.